Tamariki Maru No.1 — JD3400 — position and weather

sailwx.info

Track history (hours):
 
Tides and Currents Weather Stations Pressure Air Temp Water Temp Dewpoint Dewpoint Depression Visibility Wind Speed Wind Dir Waves Ship Positions

Tamariki Maru No.1

Last reported at 2018-Jul-14 09:25 UTC. Time now 2018-Jul-20 01:10 UTC.
Position N 34°28' E 134°30'.

Length 79 m; draft 5.5 m.

Type: Tanker. MMSI: 431003767.

Date/timePositionNaut miles runAvg speedWind from/ knotsBaromVisibWave heightAir tempDewpointWater temp
2018-Jul-14 09:25N 34°28' E 134°30'511.8
2018-Jul-14 08:57N 34°30' E 134°36'611.7
2018-Jul-14 08:28N 34°32' E 134°43'511.6
2018-Jul-14 08:00N 34°34' E 134°49'510.5
2018-Jul-14 07:30N 34°36' E 134°54'6 8.7
2018-Jul-14 06:51N 34°37' E 135°01'2 6.1
2018-Jul-14 06:30N 34°36' E 135°03'4 7.7
2018-Jul-14 06:00N 34°36' E 135°08'611.2
2018-Jul-14 05:30N 34°36' E 135°15'611.5
2018-Jul-14 05:01N 34°36' E 135°22'3 6.6
2018-Jul-14 04:29N 34°35' E 135°26'0 0.8
2018-Jul-14 03:53N 34°35' E 135°26'0 0.0
2018-Jul-14 03:29N 34°35' E 135°26'0 0.0
2018-Jul-14 02:59N 34°35' E 135°26'0 0.0
2018-Jul-14 02:23N 34°35' E 135°26'0 0.0
2018-Jul-14 01:53N 34°35' E 135°26'0 0.0
2018-Jul-14 01:29N 34°35' E 135°26'0 0.0
2018-Jul-14 00:59N 34°35' E 135°26'0 0.0
2018-Jul-14 00:23N 34°35' E 135°26'0 0.0
2018-Jul-13 23:59N 34°35' E 135°26'0 0.0
2018-Jul-13 23:29N 34°35' E 135°26'0 0.0
2018-Jul-13 22:59N 34°35' E 135°26'1 1.4
2018-Jul-13 22:30N 34°35' E 135°25'2 1.0
2018-Jul-13 20:23N 34°36' E 135°23'0 0.0
2018-Jul-13 19:47N 34°36' E 135°23'0 0.1
2018-Jul-13 19:29N 34°36' E 135°23'0 0.0
2018-Jul-13 18:05N 34°36' E 135°23'0 0.1
2018-Jul-13 17:59N 34°36' E 135°23'0 0.0
2018-Jul-13 17:05N 34°36' E 135°23'0 0.1
2018-Jul-13 16:59N 34°36' E 135°23'0 0.0
2018-Jul-13 15:11N 34°36' E 135°23'0 0.0
2018-Jul-13 14:59N 34°36' E 135°23'0 0.1
2018-Jul-13 13:59N 34°36' E 135°23'0 0.0
2018-Jul-13 13:29N 34°36' E 135°23'0 0.0
2018-Jul-13 12:59N 34°36' E 135°23'0 0.0
2018-Jul-13 12:29N 34°36' E 135°23'0 0.0
2018-Jul-13 11:59N 34°36' E 135°23'0 0.0
2018-Jul-13 10:41N 34°36' E 135°23'0 0.0
2018-Jul-13 09:17N 34°36' E 135°23'0 0.0
2018-Jul-13 08:53N 34°36' E 135°23'0 0.0
2018-Jul-13 06:59N 34°36' E 135°23'0 0.0
2018-Jul-13 06:29N 34°36' E 135°23'0 0.0
2018-Jul-13 05:35N 34°36' E 135°23'0 0.0
2018-Jul-13 05:29N 34°36' E 135°23'0 0.0
2018-Jul-13 04:53N 34°36' E 135°23'0 0.0
2018-Jul-13 04:23N 34°36' E 135°23'0 0.0
2018-Jul-13 01:23N 34°36' E 135°23'0 0.0
2018-Jul-13 00:56N 34°36' E 135°23'0 0.0
2018-Jul-13 00:29N 34°36' E 135°23'0 0.0
2018-Jul-12 23:59N 34°36' E 135°23'0 0.0
2018-Jul-12 23:29N 34°36' E 135°23'0 0.0
2018-Jul-12 22:59N 34°36' E 135°23'0 0.0
2018-Jul-12 22:29N 34°36' E 135°23'0 0.0
2018-Jul-12 21:53N 34°36' E 135°23'0 0.0
2018-Jul-12 21:29N 34°36' E 135°23'0 0.0
2018-Jul-12 20:59N 34°36' E 135°23'0 0.0
2018-Jul-12 20:29N 34°36' E 135°23'0 0.0
2018-Jul-12 19:53N 34°36' E 135°23'0 0.0
2018-Jul-12 18:11N 34°36' E 135°23'0 0.0
2018-Jul-12 17:35N 34°36' E 135°23'0 0.2
2018-Jul-12 17:23N 34°36' E 135°23'0 0.0
2018-Jul-12 16:59N 34°36' E 135°23'0 0.0
2018-Jul-12 16:29N 34°36' E 135°23'0 0.0
2018-Jul-12 15:05N 34°36' E 135°23'0 0.0
2018-Jul-12 14:47N 34°36' E 135°23'0 0.0
2018-Jul-12 14:23N 34°36' E 135°23'0 0.0
2018-Jul-12 13:17N 34°36' E 135°23'0 0.0
2018-Jul-12 12:59N 34°36' E 135°23'0 0.0
2018-Jul-12 12:23N 34°36' E 135°23'0 0.0
2018-Jul-12 11:53N 34°36' E 135°23'0 0.0
2018-Jul-12 10:05N 34°36' E 135°23'0 0.0
2018-Jul-12 09:35N 34°36' E 135°23'0 0.1
2018-Jul-12 09:29N 34°36' E 135°23'0 0.0
2018-Jul-12 08:59N 34°36' E 135°23'0 0.1
2018-Jul-12 08:30N 34°36' E 135°23'611.5
2018-Jul-12 08:00N 34°35' E 135°16'713.6
2018-Jul-12 07:30N 34°35' E 135°08'1612.7
2018-Jul-12 06:15N 34°33' E 134°49'413.3
2018-Jul-12 05:59N 34°32' E 134°45'713.6
2018-Jul-12 05:30N 34°29' E 134°37'  
Track history (hours):
 
Tides and Currents Weather Stations Pressure Air Temp Water Temp Dewpoint Dewpoint Depression Visibility Wind Speed Wind Dir Waves Ship Positions

Tamariki Maru No.1

Last reported at 2018-Jul-14 09:25 UTC. Time now 2018-Jul-20 01:10 UTC.
Position N 34°28' E 134°30'.

Length 79 m; draft 5.5 m.

Type: Tanker. MMSI: 431003767.

Date/timePositionNaut miles runAvg speedWind from/ knotsBaromVisibWave heightAir tempDewpointWater temp
2018-Jul-14 09:25N 34°28' E 134°30'511.8
2018-Jul-14 08:57N 34°30' E 134°36'611.7
2018-Jul-14 08:28N 34°32' E 134°43'511.6
2018-Jul-14 08:00N 34°34' E 134°49'510.5
2018-Jul-14 07:30N 34°36' E 134°54'6 8.7
2018-Jul-14 06:51N 34°37' E 135°01'2 6.1
2018-Jul-14 06:30N 34°36' E 135°03'4 7.7
2018-Jul-14 06:00N 34°36' E 135°08'611.2
2018-Jul-14 05:30N 34°36' E 135°15'611.5
2018-Jul-14 05:01N 34°36' E 135°22'3 6.6
2018-Jul-14 04:29N 34°35' E 135°26'0 0.8
2018-Jul-14 03:53N 34°35' E 135°26'0 0.0
2018-Jul-14 03:29N 34°35' E 135°26'0 0.0
2018-Jul-14 02:59N 34°35' E 135°26'0 0.0
2018-Jul-14 02:23N 34°35' E 135°26'0 0.0
2018-Jul-14 01:53N 34°35' E 135°26'0 0.0
2018-Jul-14 01:29N 34°35' E 135°26'0 0.0
2018-Jul-14 00:59N 34°35' E 135°26'0 0.0
2018-Jul-14 00:23N 34°35' E 135°26'0 0.0
2018-Jul-13 23:59N 34°35' E 135°26'0 0.0
2018-Jul-13 23:29N 34°35' E 135°26'0 0.0
2018-Jul-13 22:59N 34°35' E 135°26'1 1.4
2018-Jul-13 22:30N 34°35' E 135°25'2 1.0
2018-Jul-13 20:23N 34°36' E 135°23'0 0.0
2018-Jul-13 19:47N 34°36' E 135°23'0 0.1
2018-Jul-13 19:29N 34°36' E 135°23'0 0.0
2018-Jul-13 18:05N 34°36' E 135°23'0 0.1
2018-Jul-13 17:59N 34°36' E 135°23'0 0.0
2018-Jul-13 17:05N 34°36' E 135°23'0 0.1
2018-Jul-13 16:59N 34°36' E 135°23'0 0.0
2018-Jul-13 15:11N 34°36' E 135°23'0 0.0
2018-Jul-13 14:59N 34°36' E 135°23'0 0.1
2018-Jul-13 13:59N 34°36' E 135°23'0 0.0
2018-Jul-13 13:29N 34°36' E 135°23'0 0.0
2018-Jul-13 12:59N 34°36' E 135°23'0 0.0
2018-Jul-13 12:29N 34°36' E 135°23'0 0.0
2018-Jul-13 11:59N 34°36' E 135°23'0 0.0
2018-Jul-13 10:41N 34°36' E 135°23'0 0.0
2018-Jul-13 09:17N 34°36' E 135°23'0 0.0
2018-Jul-13 08:53N 34°36' E 135°23'0 0.0
2018-Jul-13 06:59N 34°36' E 135°23'0 0.0
2018-Jul-13 06:29N 34°36' E 135°23'0 0.0
2018-Jul-13 05:35N 34°36' E 135°23'0 0.0
2018-Jul-13 05:29N 34°36' E 135°23'0 0.0
2018-Jul-13 04:53N 34°36' E 135°23'0 0.0
2018-Jul-13 04:23N 34°36' E 135°23'0 0.0
2018-Jul-13 01:23N 34°36' E 135°23'0 0.0
2018-Jul-13 00:56N 34°36' E 135°23'0 0.0
2018-Jul-13 00:29N 34°36' E 135°23'0 0.0
2018-Jul-12 23:59N 34°36' E 135°23'0 0.0
2018-Jul-12 23:29N 34°36' E 135°23'0 0.0
2018-Jul-12 22:59N 34°36' E 135°23'0 0.0
2018-Jul-12 22:29N 34°36' E 135°23'0 0.0
2018-Jul-12 21:53N 34°36' E 135°23'0 0.0
2018-Jul-12 21:29N 34°36' E 135°23'0 0.0
2018-Jul-12 20:59N 34°36' E 135°23'0 0.0
2018-Jul-12 20:29N 34°36' E 135°23'0 0.0
2018-Jul-12 19:53N 34°36' E 135°23'0 0.0
2018-Jul-12 18:11N 34°36' E 135°23'0 0.0
2018-Jul-12 17:35N 34°36' E 135°23'0 0.2
2018-Jul-12 17:23N 34°36' E 135°23'0 0.0
2018-Jul-12 16:59N 34°36' E 135°23'0 0.0
2018-Jul-12 16:29N 34°36' E 135°23'0 0.0
2018-Jul-12 15:05N 34°36' E 135°23'0 0.0
2018-Jul-12 14:47N 34°36' E 135°23'0 0.0
2018-Jul-12 14:23N 34°36' E 135°23'0 0.0
2018-Jul-12 13:17N 34°36' E 135°23'0 0.0
2018-Jul-12 12:59N 34°36' E 135°23'0 0.0
2018-Jul-12 12:23N 34°36' E 135°23'0 0.0
2018-Jul-12 11:53N 34°36' E 135°23'0 0.0
2018-Jul-12 10:05N 34°36' E 135°23'0 0.0
2018-Jul-12 09:35N 34°36' E 135°23'0 0.1
2018-Jul-12 09:29N 34°36' E 135°23'0 0.0
2018-Jul-12 08:59N 34°36' E 135°23'0 0.1
2018-Jul-12 08:30N 34°36' E 135°23'611.5
2018-Jul-12 08:00N 34°35' E 135°16'713.6
2018-Jul-12 07:30N 34°35' E 135°08'1612.7
2018-Jul-12 06:15N 34°33' E 134°49'413.3
2018-Jul-12 05:59N 34°32' E 134°45'713.6
2018-Jul-12 05:30N 34°29' E 134°37'  

Dump ship's entire track history